aviador You're here:

KM25 Decoded Metar

in
Report Time2017-07-22 02:55:00
UTC Time2017-07-22 02:31:01
Flight Rules vfr VFR
WindCalm
Visibility9999 m
Phenomena:N/A
Clouds:N/A
Expected CloudBase > 1,600 ft AGL from Temp-Dew spread
CeilingNone
Temp29°C
Dew Point25°C (79% RH)
Heat Index34.5°C
QNH1015 hPa
Raw Report
KM25 220255Z AUTO 00000KT 10SM CLR 29/25 A2997 RMK AO2 PWINO=

Extra information for KM25:More info

Social comments